sensor_id;sensor_type;location;lat;lon;timestamp;P1;durP1;ratioP1;P2;durP2;ratioP2
83099;SDS011;72972;51.784;4.660;2024-03-25T00:03:50;3.72;;;1.55;;
83099;SDS011;72972;51.784;4.660;2024-03-25T00:06:15;4.53;;;1.65;;
83099;SDS011;72972;51.784;4.660;2024-03-25T00:08:41;4.25;;;1.77;;
83099;SDS011;72972;51.784;4.660;2024-03-25T00:11:07;2.65;;;1.42;;
83099;SDS011;72972;51.784;4.660;2024-03-25T00:13:32;4.38;;;1.48;;
83099;SDS011;72972;51.784;4.660;2024-03-25T00:15:58;3.00;;;1.25;;
83099;SDS011;72972;51.784;4.660;2024-03-25T00:18:23;4.75;;;1.92;;
83099;SDS011;72972;51.784;4.660;2024-03-25T00:20:48;2.88;;;1.52;;
83099;SDS011;72972;51.784;4.660;2024-03-25T00:23:14;5.47;;;1.63;;
83099;SDS011;72972;51.784;4.660;2024-03-25T00:25:40;3.80;;;1.50;;
83099;SDS011;72972;51.784;4.660;2024-03-25T00:28:05;4.15;;;1.42;;
83099;SDS011;72972;51.784;4.660;2024-03-25T00:30:30;3.58;;;1.58;;
83099;SDS011;72972;51.784;4.660;2024-03-25T00:32:56;6.95;;;1.63;;
83099;SDS011;72972;51.784;4.660;2024-03-25T00:35:21;3.83;;;1.52;;
83099;SDS011;72972;51.784;4.660;2024-03-25T00:37:47;2.42;;;1.40;;
83099;SDS011;72972;51.784;4.660;2024-03-25T00:40:12;3.28;;;1.77;;
83099;SDS011;72972;51.784;4.660;2024-03-25T00:42:38;4.20;;;1.60;;
83099;SDS011;72972;51.784;4.660;2024-03-25T00:45:03;3.95;;;1.48;;
83099;SDS011;72972;51.784;4.660;2024-03-25T00:47:31;3.28;;;1.63;;
83099;SDS011;72972;51.784;4.660;2024-03-25T00:49:56;3.13;;;1.40;;
83099;SDS011;72972;51.784;4.660;2024-03-25T00:52:22;5.95;;;1.70;;
83099;SDS011;72972;51.784;4.660;2024-03-25T00:54:47;6.90;;;1.92;;
83099;SDS011;72972;51.784;4.660;2024-03-25T00:57:12;5.53;;;1.40;;
83099;SDS011;72972;51.784;4.660;2024-03-25T00:59:38;4.53;;;1.45;;
83099;SDS011;72972;51.784;4.660;2024-03-25T01:02:04;3.05;;;1.25;;
83099;SDS011;72972;51.784;4.660;2024-03-25T01:04:29;2.75;;;1.33;;
83099;SDS011;72972;51.784;4.660;2024-03-25T01:06:55;7.30;;;1.52;;
83099;SDS011;72972;51.784;4.660;2024-03-25T01:09:20;6.03;;;1.55;;
83099;SDS011;72972;51.784;4.660;2024-03-25T01:11:47;2.78;;;1.20;;
83099;SDS011;72972;51.784;4.660;2024-03-25T01:14:12;4.32;;;1.38;;
83099;SDS011;72972;51.784;4.660;2024-03-25T01:16:38;6.40;;;2.10;;
83099;SDS011;72972;51.784;4.660;2024-03-25T01:19:03;2.72;;;1.13;;
83099;SDS011;72972;51.784;4.660;2024-03-25T01:21:28;2.42;;;1.35;;
83099;SDS011;72972;51.784;4.660;2024-03-25T01:23:55;5.95;;;1.83;;
83099;SDS011;72972;51.784;4.660;2024-03-25T01:26:20;6.80;;;1.70;;
83099;SDS011;72972;51.784;4.660;2024-03-25T01:28:47;3.92;;;1.33;;
83099;SDS011;72972;51.784;4.660;2024-03-25T01:31:12;4.97;;;1.55;;
83099;SDS011;72972;51.784;4.660;2024-03-25T01:33:38;3.75;;;1.60;;
83099;SDS011;72972;51.784;4.660;2024-03-25T01:36:04;3.50;;;1.60;;
83099;SDS011;72972;51.784;4.660;2024-03-25T01:38:30;3.58;;;1.65;;
83099;SDS011;72972;51.784;4.660;2024-03-25T01:41:06;3.17;;;1.60;;
83099;SDS011;72972;51.784;4.660;2024-03-25T01:43:32;2.92;;;1.52;;
83099;SDS011;72972;51.784;4.660;2024-03-25T01:45:57;7.35;;;1.70;;
83099;SDS011;72972;51.784;4.660;2024-03-25T01:48:23;3.17;;;0.93;;
83099;SDS011;72972;51.784;4.660;2024-03-25T01:50:48;2.92;;;1.42;;
83099;SDS011;72972;51.784;4.660;2024-03-25T01:53:14;3.58;;;1.58;;
83099;SDS011;72972;51.784;4.660;2024-03-25T01:55:39;6.15;;;1.50;;
83099;SDS011;72972;51.784;4.660;2024-03-25T01:58:06;3.55;;;1.35;;
83099;SDS011;72972;51.784;4.660;2024-03-25T02:00:32;4.93;;;1.60;;
83099;SDS011;72972;51.784;4.660;2024-03-25T02:02:58;3.45;;;1.63;;
83099;SDS011;72972;51.784;4.660;2024-03-25T02:05:24;3.95;;;1.35;;
83099;SDS011;72972;51.784;4.660;2024-03-25T02:07:49;5.47;;;1.58;;
83099;SDS011;72972;51.784;4.660;2024-03-25T02:10:16;2.97;;;1.33;;
83099;SDS011;72972;51.784;4.660;2024-03-25T02:12:42;2.65;;;1.23;;
83099;SDS011;72972;51.784;4.660;2024-03-25T02:15:09;4.80;;;1.67;;
83099;SDS011;72972;51.784;4.660;2024-03-25T02:17:35;4.75;;;1.58;;
83099;SDS011;72972;51.784;4.660;2024-03-25T02:20:01;2.25;;;1.40;;
83099;SDS011;72972;51.784;4.660;2024-03-25T02:22:37;4.22;;;1.40;;
83099;SDS011;72972;51.784;4.660;2024-03-25T02:25:06;4.00;;;1.70;;
83099;SDS011;72972;51.784;4.660;2024-03-25T02:27:38;6.20;;;2.00;;
83099;SDS011;72972;51.784;4.660;2024-03-25T02:30:05;1.80;;;1.05;;
83099;SDS011;72972;51.784;4.660;2024-03-25T02:32:32;7.50;;;1.90;;
83099;SDS011;72972;51.784;4.660;2024-03-25T02:34:58;3.25;;;1.40;;
83099;SDS011;72972;51.784;4.660;2024-03-25T02:37:24;4.30;;;1.38;;
83099;SDS011;72972;51.784;4.660;2024-03-25T02:39:50;4.00;;;1.50;;
83099;SDS011;72972;51.784;4.660;2024-03-25T02:42:16;3.45;;;1.20;;
83099;SDS011;72972;51.784;4.660;2024-03-25T02:44:42;4.80;;;1.55;;
83099;SDS011;72972;51.784;4.660;2024-03-25T02:47:08;5.43;;;1.83;;
83099;SDS011;72972;51.784;4.660;2024-03-25T02:49:34;4.38;;;1.60;;
83099;SDS011;72972;51.784;4.660;2024-03-25T02:52:00;2.00;;;1.27;;
83099;SDS011;72972;51.784;4.660;2024-03-25T02:54:25;3.45;;;1.30;;
83099;SDS011;72972;51.784;4.660;2024-03-25T02:56:50;2.70;;;1.23;;
83099;SDS011;72972;51.784;4.660;2024-03-25T02:59:16;4.25;;;1.60;;
83099;SDS011;72972;51.784;4.660;2024-03-25T03:01:41;4.40;;;1.70;;
83099;SDS011;72972;51.784;4.660;2024-03-25T03:04:06;5.78;;;1.48;;
83099;SDS011;72972;51.784;4.660;2024-03-25T03:06:32;4.15;;;1.33;;
83099;SDS011;72972;51.784;4.660;2024-03-25T03:08:57;4.80;;;1.50;;
83099;SDS011;72972;51.784;4.660;2024-03-25T03:11:22;4.65;;;1.60;;
83099;SDS011;72972;51.784;4.660;2024-03-25T03:13:48;4.38;;;1.33;;
83099;SDS011;72972;51.784;4.660;2024-03-25T03:16:13;3.25;;;1.50;;
83099;SDS011;72972;51.784;4.660;2024-03-25T03:18:39;3.20;;;1.15;;
83099;SDS011;72972;51.784;4.660;2024-03-25T03:21:04;3.30;;;1.20;;
83099;SDS011;72972;51.784;4.660;2024-03-25T03:23:30;2.53;;;0.90;;
83099;SDS011;72972;51.784;4.660;2024-03-25T03:25:55;4.80;;;1.30;;
83099;SDS011;72972;51.784;4.660;2024-03-25T03:28:22;3.17;;;1.48;;
83099;SDS011;72972;51.784;4.660;2024-03-25T03:30:47;1.75;;;1.08;;
83099;SDS011;72972;51.784;4.660;2024-03-25T03:33:12;1.42;;;1.13;;
83099;SDS011;72972;51.784;4.660;2024-03-25T03:35:38;0.98;;;0.73;;
83099;SDS011;72972;51.784;4.660;2024-03-25T03:38:03;4.60;;;1.30;;
83099;SDS011;72972;51.784;4.660;2024-03-25T03:40:29;2.83;;;1.33;;
83099;SDS011;72972;51.784;4.660;2024-03-25T03:42:54;1.95;;;1.20;;
83099;SDS011;72972;51.784;4.660;2024-03-25T03:45:21;4.78;;;1.20;;
83099;SDS011;72972;51.784;4.660;2024-03-25T03:47:48;1.83;;;0.90;;
83099;SDS011;72972;51.784;4.660;2024-03-25T03:50:14;1.52;;;0.80;;
83099;SDS011;72972;51.784;4.660;2024-03-25T03:52:39;1.45;;;0.85;;
83099;SDS011;72972;51.784;4.660;2024-03-25T03:55:05;3.15;;;1.25;;
83099;SDS011;72972;51.784;4.660;2024-03-25T03:57:31;3.67;;;1.20;;
83099;SDS011;72972;51.784;4.660;2024-03-25T03:59:57;5.53;;;1.50;;
83099;SDS011;72972;51.784;4.660;2024-03-25T04:02:22;2.83;;;1.25;;
83099;SDS011;72972;51.784;4.660;2024-03-25T04:04:48;2.00;;;1.10;;
83099;SDS011;72972;51.784;4.660;2024-03-25T04:07:14;5.35;;;1.55;;
83099;SDS011;72972;51.784;4.660;2024-03-25T04:09:40;2.45;;;1.10;;
83099;SDS011;72972;51.784;4.660;2024-03-25T04:12:05;4.78;;;1.40;;
83099;SDS011;72972;51.784;4.660;2024-03-25T04:14:31;3.42;;;1.50;;
83099;SDS011;72972;51.784;4.660;2024-03-25T04:16:56;3.25;;;1.40;;
83099;SDS011;72972;51.784;4.660;2024-03-25T04:19:25;4.65;;;1.55;;
83099;SDS011;72972;51.784;4.660;2024-03-25T04:21:52;5.30;;;1.40;;
83099;SDS011;72972;51.784;4.660;2024-03-25T04:24:18;2.47;;;1.30;;
83099;SDS011;72972;51.784;4.660;2024-03-25T04:26:44;1.77;;;1.33;;
83099;SDS011;72972;51.784;4.660;2024-03-25T04:29:09;3.65;;;1.23;;
83099;SDS011;72972;51.784;4.660;2024-03-25T04:31:35;3.75;;;1.33;;
83099;SDS011;72972;51.784;4.660;2024-03-25T04:34:01;3.38;;;1.10;;
83099;SDS011;72972;51.784;4.660;2024-03-25T04:36:27;1.88;;;1.02;;
83099;SDS011;72972;51.784;4.660;2024-03-25T04:38:52;2.72;;;1.40;;
83099;SDS011;72972;51.784;4.660;2024-03-25T04:41:17;1.42;;;1.00;;
83099;SDS011;72972;51.784;4.660;2024-03-25T04:43:43;3.15;;;1.05;;
83099;SDS011;72972;51.784;4.660;2024-03-25T04:46:08;1.83;;;1.20;;
83099;SDS011;72972;51.784;4.660;2024-03-25T04:48:33;1.50;;;1.20;;
83099;SDS011;72972;51.784;4.660;2024-03-25T04:50:59;1.58;;;1.13;;
83099;SDS011;72972;51.784;4.660;2024-03-25T04:53:25;1.63;;;1.08;;
83099;SDS011;72972;51.784;4.660;2024-03-25T04:55:50;1.88;;;1.23;;
83099;SDS011;72972;51.784;4.660;2024-03-25T04:58:16;2.00;;;1.20;;
83099;SDS011;72972;51.784;4.660;2024-03-25T05:00:41;2.42;;;1.17;;
83099;SDS011;72972;51.784;4.660;2024-03-25T05:03:06;2.58;;;1.60;;
83099;SDS011;72972;51.784;4.660;2024-03-25T05:05:32;1.35;;;1.15;;
83099;SDS011;72972;51.784;4.660;2024-03-25T05:07:57;5.10;;;1.40;;
83099;SDS011;72972;51.784;4.660;2024-03-25T05:10:22;1.88;;;1.33;;
83099;SDS011;72972;51.784;4.660;2024-03-25T05:12:48;3.00;;;1.23;;
83099;SDS011;72972;51.784;4.660;2024-03-25T05:15:14;3.63;;;1.50;;
83099;SDS011;72972;51.784;4.660;2024-03-25T05:17:40;3.22;;;1.33;;
83099;SDS011;72972;51.784;4.660;2024-03-25T05:20:06;2.28;;;1.33;;
83099;SDS011;72972;51.784;4.660;2024-03-25T05:22:31;4.03;;;1.60;;
83099;SDS011;72972;51.784;4.660;2024-03-25T05:24:57;4.15;;;1.60;;
83099;SDS011;72972;51.784;4.660;2024-03-25T05:27:22;1.48;;;1.00;;
83099;SDS011;72972;51.784;4.660;2024-03-25T05:29:48;2.45;;;1.40;;
83099;SDS011;72972;51.784;4.660;2024-03-25T05:32:14;1.77;;;1.27;;
83099;SDS011;72972;51.784;4.660;2024-03-25T05:34:41;2.53;;;1.27;;
83099;SDS011;72972;51.784;4.660;2024-03-25T05:37:07;3.78;;;1.70;;
83099;SDS011;72972;51.784;4.660;2024-03-25T05:39:32;2.08;;;1.50;;
83099;SDS011;72972;51.784;4.660;2024-03-25T05:41:57;2.63;;;1.35;;
83099;SDS011;72972;51.784;4.660;2024-03-25T05:44:23;2.70;;;1.50;;
83099;SDS011;72972;51.784;4.660;2024-03-25T05:46:48;1.70;;;1.38;;
83099;SDS011;72972;51.784;4.660;2024-03-25T05:49:14;3.67;;;1.67;;
83099;SDS011;72972;51.784;4.660;2024-03-25T05:51:39;2.67;;;1.50;;
83099;SDS011;72972;51.784;4.660;2024-03-25T05:54:05;3.15;;;1.50;;
83099;SDS011;72972;51.784;4.660;2024-03-25T05:56:30;2.22;;;1.55;;
83099;SDS011;72972;51.784;4.660;2024-03-25T05:58:59;3.20;;;2.03;;
83099;SDS011;72972;51.784;4.660;2024-03-25T06:01:25;3.15;;;1.80;;
83099;SDS011;72972;51.784;4.660;2024-03-25T06:03:50;5.00;;;1.90;;
83099;SDS011;72972;51.784;4.660;2024-03-25T06:06:16;3.40;;;1.80;;
83099;SDS011;72972;51.784;4.660;2024-03-25T06:08:42;4.97;;;2.38;;
83099;SDS011;72972;51.784;4.660;2024-03-25T06:11:07;3.15;;;1.60;;
83099;SDS011;72972;51.784;4.660;2024-03-25T06:13:33;2.58;;;1.98;;
83099;SDS011;72972;51.784;4.660;2024-03-25T06:15:58;3.83;;;1.77;;
83099;SDS011;72972;51.784;4.660;2024-03-25T06:18:24;3.47;;;1.77;;
83099;SDS011;72972;51.784;4.660;2024-03-25T06:20:49;4.55;;;2.15;;
83099;SDS011;72972;51.784;4.660;2024-03-25T06:23:24;4.03;;;2.00;;
83099;SDS011;72972;51.784;4.660;2024-03-25T06:25:51;3.10;;;2.00;;
83099;SDS011;72972;51.784;4.660;2024-03-25T06:28:18;5.05;;;2.00;;
83099;SDS011;72972;51.784;4.660;2024-03-25T06:30:45;5.80;;;2.70;;
83099;SDS011;72972;51.784;4.660;2024-03-25T06:33:30;4.78;;;2.15;;
83099;SDS011;72972;51.784;4.660;2024-03-25T06:36:14;4.57;;;3.00;;
83099;SDS011;72972;51.784;4.660;2024-03-25T06:38:40;3.17;;;2.40;;
83099;SDS011;72972;51.784;4.660;2024-03-25T06:41:05;4.63;;;2.78;;
83099;SDS011;72972;51.784;4.660;2024-03-25T06:43:30;4.55;;;2.88;;
83099;SDS011;72972;51.784;4.660;2024-03-25T06:45:56;3.20;;;2.65;;
83099;SDS011;72972;51.784;4.660;2024-03-25T06:48:21;4.00;;;2.42;;
83099;SDS011;72972;51.784;4.660;2024-03-25T06:50:53;5.50;;;3.20;;
83099;SDS011;72972;51.784;4.660;2024-03-25T06:53:20;6.45;;;3.30;;
83099;SDS011;72972;51.784;4.660;2024-03-25T06:55:55;4.72;;;2.72;;
83099;SDS011;72972;51.784;4.660;2024-03-25T06:58:21;4.80;;;3.03;;
83099;SDS011;72972;51.784;4.660;2024-03-25T07:00:48;3.78;;;2.90;;
83099;SDS011;72972;51.784;4.660;2024-03-25T07:03:20;6.28;;;3.10;;
83099;SDS011;72972;51.784;4.660;2024-03-25T07:05:46;5.20;;;2.90;;
83099;SDS011;72972;51.784;4.660;2024-03-25T07:08:13;4.25;;;2.88;;
83099;SDS011;72972;51.784;4.660;2024-03-25T07:10:41;5.03;;;2.97;;
83099;SDS011;72972;51.784;4.660;2024-03-25T07:13:07;4.05;;;3.05;;
83099;SDS011;72972;51.784;4.660;2024-03-25T07:15:32;4.63;;;3.55;;
83099;SDS011;72972;51.784;4.660;2024-03-25T07:17:58;5.97;;;3.35;;
83099;SDS011;72972;51.784;4.660;2024-03-25T07:20:23;5.65;;;2.80;;
83099;SDS011;72972;51.784;4.660;2024-03-25T07:22:49;4.30;;;2.85;;
83099;SDS011;72972;51.784;4.660;2024-03-25T07:25:14;4.30;;;2.90;;
83099;SDS011;72972;51.784;4.660;2024-03-25T07:27:40;5.45;;;2.92;;
83099;SDS011;72972;51.784;4.660;2024-03-25T07:30:09;6.97;;;3.13;;
83099;SDS011;72972;51.784;4.660;2024-03-25T07:32:35;5.53;;;2.65;;
83099;SDS011;72972;51.784;4.660;2024-03-25T07:35:01;4.35;;;3.03;;
83099;SDS011;72972;51.784;4.660;2024-03-25T07:37:26;4.25;;;2.95;;
83099;SDS011;72972;51.784;4.660;2024-03-25T07:39:52;4.43;;;2.83;;
83099;SDS011;72972;51.784;4.660;2024-03-25T07:42:17;4.47;;;3.00;;
83099;SDS011;72972;51.784;4.660;2024-03-25T07:44:43;4.07;;;3.13;;
83099;SDS011;72972;51.784;4.660;2024-03-25T07:47:08;3.95;;;2.95;;
83099;SDS011;72972;51.784;4.660;2024-03-25T07:49:34;5.72;;;3.03;;
83099;SDS011;72972;51.784;4.660;2024-03-25T07:52:00;4.20;;;3.30;;
83099;SDS011;72972;51.784;4.660;2024-03-25T07:54:25;5.78;;;2.88;;
83099;SDS011;72972;51.784;4.660;2024-03-25T07:56:51;4.68;;;3.10;;
83099;SDS011;72972;51.784;4.660;2024-03-25T07:59:17;5.63;;;3.53;;
83099;SDS011;72972;51.784;4.660;2024-03-25T08:01:43;6.07;;;3.20;;
83099;SDS011;72972;51.784;4.660;2024-03-25T08:04:08;5.18;;;3.35;;
83099;SDS011;72972;51.784;4.660;2024-03-25T08:06:34;4.70;;;3.03;;
83099;SDS011;72972;51.784;4.660;2024-03-25T08:08:59;5.82;;;3.33;;
83099;SDS011;72972;51.784;4.660;2024-03-25T08:11:25;5.82;;;3.38;;
83099;SDS011;72972;51.784;4.660;2024-03-25T08:13:50;5.43;;;3.40;;
83099;SDS011;72972;51.784;4.660;2024-03-25T08:16:15;6.38;;;3.45;;
83099;SDS011;72972;51.784;4.660;2024-03-25T08:18:41;4.75;;;3.38;;
83099;SDS011;72972;51.784;4.660;2024-03-25T08:21:06;5.50;;;3.63;;
83099;SDS011;72972;51.784;4.660;2024-03-25T08:23:31;6.10;;;3.42;;
83099;SDS011;72972;51.784;4.660;2024-03-25T08:25:57;5.65;;;3.70;;
83099;SDS011;72972;51.784;4.660;2024-03-25T08:28:22;5.60;;;3.53;;
83099;SDS011;72972;51.784;4.660;2024-03-25T08:30:48;6.00;;;3.60;;
83099;SDS011;72972;51.784;4.660;2024-03-25T08:33:13;6.28;;;4.22;;
83099;SDS011;72972;51.784;4.660;2024-03-25T08:35:38;6.97;;;4.00;;
83099;SDS011;72972;51.784;4.660;2024-03-25T08:38:04;5.15;;;3.88;;
83099;SDS011;72972;51.784;4.660;2024-03-25T08:40:29;6.28;;;4.15;;
83099;SDS011;72972;51.784;4.660;2024-03-25T08:42:54;7.60;;;4.38;;
83099;SDS011;72972;51.784;4.660;2024-03-25T08:45:20;6.88;;;4.30;;
83099;SDS011;72972;51.784;4.660;2024-03-25T08:47:45;5.78;;;3.67;;
83099;SDS011;72972;51.784;4.660;2024-03-25T08:50:10;6.15;;;4.15;;
83099;SDS011;72972;51.784;4.660;2024-03-25T08:52:36;7.82;;;5.55;;
83099;SDS011;72972;51.784;4.660;2024-03-25T08:55:01;9.43;;;6.63;;
83099;SDS011;72972;51.784;4.660;2024-03-25T08:57:27;9.73;;;7.53;;
83099;SDS011;72972;51.784;4.660;2024-03-25T08:59:52;11.05;;;7.35;;
83099;SDS011;72972;51.784;4.660;2024-03-25T09:02:18;8.98;;;6.10;;
83099;SDS011;72972;51.784;4.660;2024-03-25T09:04:43;9.27;;;6.50;;
83099;SDS011;72972;51.784;4.660;2024-03-25T09:07:09;9.45;;;7.15;;
83099;SDS011;72972;51.784;4.660;2024-03-25T09:09:34;10.13;;;7.57;;
83099;SDS011;72972;51.784;4.660;2024-03-25T09:12:18;10.63;;;7.07;;
83099;SDS011;72972;51.784;4.660;2024-03-25T09:14:43;12.10;;;8.30;;
83099;SDS011;72972;51.784;4.660;2024-03-25T09:17:09;11.13;;;7.88;;
83099;SDS011;72972;51.784;4.660;2024-03-25T09:19:34;12.27;;;7.80;;
83099;SDS011;72972;51.784;4.660;2024-03-25T09:21:59;14.15;;;8.65;;
83099;SDS011;72972;51.784;4.660;2024-03-25T09:24:25;12.50;;;8.23;;
83099;SDS011;72972;51.784;4.660;2024-03-25T09:26:50;12.80;;;7.90;;
83099;SDS011;72972;51.784;4.660;2024-03-25T09:29:16;15.10;;;8.52;;
83099;SDS011;72972;51.784;4.660;2024-03-25T09:31:41;13.93;;;9.27;;
83099;SDS011;72972;51.784;4.660;2024-03-25T09:34:06;11.85;;;7.70;;
83099;SDS011;72972;51.784;4.660;2024-03-25T09:36:32;12.52;;;7.72;;
83099;SDS011;72972;51.784;4.660;2024-03-25T09:38:57;12.00;;;7.10;;
83099;SDS011;72972;51.784;4.660;2024-03-25T09:41:22;14.85;;;8.52;;
83099;SDS011;72972;51.784;4.660;2024-03-25T09:43:48;12.57;;;7.82;;
83099;SDS011;72972;51.784;4.660;2024-03-25T09:46:19;11.63;;;7.00;;
83099;SDS011;72972;51.784;4.660;2024-03-25T09:48:45;11.30;;;6.80;;
83099;SDS011;72972;51.784;4.660;2024-03-25T09:51:10;9.88;;;6.97;;
83099;SDS011;72972;51.784;4.660;2024-03-25T09:53:35;11.32;;;7.20;;
83099;SDS011;72972;51.784;4.660;2024-03-25T09:56:01;7.43;;;5.35;;
83099;SDS011;72972;51.784;4.660;2024-03-25T09:58:26;10.68;;;5.93;;
83099;SDS011;72972;51.784;4.660;2024-03-25T10:00:53;9.52;;;5.75;;
83099;SDS011;72972;51.784;4.660;2024-03-25T10:03:20;9.48;;;5.55;;
83099;SDS011;72972;51.784;4.660;2024-03-25T10:05:45;8.65;;;5.43;;
83099;SDS011;72972;51.784;4.660;2024-03-25T10:08:11;8.52;;;5.93;;
83099;SDS011;72972;51.784;4.660;2024-03-25T10:10:36;8.82;;;5.38;;
83099;SDS011;72972;51.784;4.660;2024-03-25T10:13:05;8.50;;;5.68;;
83099;SDS011;72972;51.784;4.660;2024-03-25T10:15:31;7.70;;;5.10;;
83099;SDS011;72972;51.784;4.660;2024-03-25T10:17:57;6.65;;;4.40;;
83099;SDS011;72972;51.784;4.660;2024-03-25T10:20:23;8.13;;;5.18;;
83099;SDS011;72972;51.784;4.660;2024-03-25T10:22:49;6.07;;;4.05;;
83099;SDS011;72972;51.784;4.660;2024-03-25T10:27:57;6.35;;;3.95;;
83099;SDS011;72972;51.784;4.660;2024-03-25T10:30:24;4.72;;;3.65;;
83099;SDS011;72972;51.784;4.660;2024-03-25T10:33:00;4.88;;;3.97;;
83099;SDS011;72972;51.784;4.660;2024-03-25T10:37:59;4.53;;;3.10;;
83099;SDS011;72972;51.784;4.660;2024-03-25T10:40:29;6.63;;;3.33;;
83099;SDS011;72972;51.784;4.660;2024-03-25T10:43:02;5.80;;;3.75;;
83099;SDS011;72972;51.784;4.660;2024-03-25T10:45:29;4.95;;;3.35;;
83099;SDS011;72972;51.784;4.660;2024-03-25T10:47:58;5.57;;;2.95;;
83099;SDS011;72972;51.784;4.660;2024-03-25T10:50:29;5.20;;;3.30;;
83099;SDS011;72972;51.784;4.660;2024-03-25T10:52:57;4.20;;;2.65;;
83099;SDS011;72972;51.784;4.660;2024-03-25T10:55:22;5.45;;;2.95;;
83099;SDS011;72972;51.784;4.660;2024-03-25T10:57:49;5.45;;;3.03;;
83099;SDS011;72972;51.784;4.660;2024-03-25T11:00:17;3.80;;;2.65;;
83099;SDS011;72972;51.784;4.660;2024-03-25T11:02:45;4.13;;;2.90;;
83099;SDS011;72972;51.784;4.660;2024-03-25T11:05:11;6.07;;;2.92;;
83099;SDS011;72972;51.784;4.660;2024-03-25T11:07:37;3.92;;;2.72;;
83099;SDS011;72972;51.784;4.660;2024-03-25T11:10:05;4.28;;;2.88;;
83099;SDS011;72972;51.784;4.660;2024-03-25T11:12:35;6.50;;;3.13;;
83099;SDS011;72972;51.784;4.660;2024-03-25T11:15:02;5.13;;;3.08;;
83099;SDS011;72972;51.784;4.660;2024-03-25T11:17:29;3.83;;;2.70;;
83099;SDS011;72972;51.784;4.660;2024-03-25T11:20:05;3.38;;;2.78;;
83099;SDS011;72972;51.784;4.660;2024-03-25T11:22:50;3.95;;;2.50;;
83099;SDS011;72972;51.784;4.660;2024-03-25T11:25:17;5.00;;;2.40;;
83099;SDS011;72972;51.784;4.660;2024-03-25T11:27:43;4.05;;;2.58;;
83099;SDS011;72972;51.784;4.660;2024-03-25T11:30:15;4.03;;;2.22;;
83099;SDS011;72972;51.784;4.660;2024-03-25T11:32:53;3.30;;;2.22;;
83099;SDS011;72972;51.784;4.660;2024-03-25T11:35:20;3.60;;;2.33;;
83099;SDS011;72972;51.784;4.660;2024-03-25T11:37:46;2.40;;;1.77;;
83099;SDS011;72972;51.784;4.660;2024-03-25T11:40:12;3.90;;;2.20;;
83099;SDS011;72972;51.784;4.660;2024-03-25T11:42:42;3.38;;;1.90;;
83099;SDS011;72972;51.784;4.660;2024-03-25T11:45:19;3.00;;;2.10;;
83099;SDS011;72972;51.784;4.660;2024-03-25T11:47:45;2.00;;;1.70;;
83099;SDS011;72972;51.784;4.660;2024-03-25T11:50:12;2.78;;;1.73;;
83099;SDS011;72972;51.784;4.660;2024-03-25T11:52:39;3.38;;;1.80;;
83099;SDS011;72972;51.784;4.660;2024-03-25T11:55:06;3.50;;;2.00;;
83099;SDS011;72972;51.784;4.660;2024-03-25T11:57:35;3.17;;;1.88;;
83099;SDS011;72972;51.784;4.660;2024-03-25T12:00:04;3.17;;;2.10;;
83099;SDS011;72972;51.784;4.660;2024-03-25T12:02:44;3.10;;;2.00;;
83099;SDS011;72972;51.784;4.660;2024-03-25T12:05:10;3.45;;;1.88;;
83099;SDS011;72972;51.784;4.660;2024-03-25T12:07:36;3.20;;;1.70;;
83099;SDS011;72972;51.784;4.660;2024-03-25T12:10:02;2.05;;;1.55;;
83099;SDS011;72972;51.784;4.660;2024-03-25T12:12:46;2.72;;;1.90;;
83099;SDS011;72972;51.784;4.660;2024-03-25T12:15:12;2.15;;;1.60;;
83099;SDS011;72972;51.784;4.660;2024-03-25T12:17:37;2.55;;;1.90;;
83099;SDS011;72972;51.784;4.660;2024-03-25T12:20:06;3.58;;;1.88;;
83099;SDS011;72972;51.784;4.660;2024-03-25T12:22:33;1.77;;;1.55;;
83099;SDS011;72972;51.784;4.660;2024-03-25T12:25:00;2.08;;;1.70;;
83099;SDS011;72972;51.784;4.660;2024-03-25T12:27:27;2.42;;;1.60;;
83099;SDS011;72972;51.784;4.660;2024-03-25T12:30:00;2.65;;;1.60;;
83099;SDS011;72972;51.784;4.660;2024-03-25T12:32:40;2.45;;;1.60;;
83099;SDS011;72972;51.784;4.660;2024-03-25T12:35:08;2.78;;;1.58;;
83099;SDS011;72972;51.784;4.660;2024-03-25T12:37:33;2.92;;;1.77;;
83099;SDS011;72972;51.784;4.660;2024-03-25T12:39:59;2.03;;;1.42;;
83099;SDS011;72972;51.784;4.660;2024-03-25T12:42:27;4.68;;;1.77;;
83099;SDS011;72972;51.784;4.660;2024-03-25T12:44:53;3.22;;;1.70;;
83099;SDS011;72972;51.784;4.660;2024-03-25T12:47:19;2.35;;;1.45;;
83099;SDS011;72972;51.784;4.660;2024-03-25T12:49:44;2.55;;;1.60;;
83099;SDS011;72972;51.784;4.660;2024-03-25T12:52:11;2.05;;;1.50;;
83099;SDS011;72972;51.784;4.660;2024-03-25T12:54:36;2.15;;;1.50;;
83099;SDS011;72972;51.784;4.660;2024-03-25T12:57:02;2.42;;;1.48;;
83099;SDS011;72972;51.784;4.660;2024-03-25T12:59:28;3.20;;;1.50;;
83099;SDS011;72972;51.784;4.660;2024-03-25T13:01:53;2.35;;;1.60;;
83099;SDS011;72972;51.784;4.660;2024-03-25T13:04:18;4.07;;;1.73;;
83099;SDS011;72972;51.784;4.660;2024-03-25T13:06:44;3.47;;;1.70;;
83099;SDS011;72972;51.784;4.660;2024-03-25T13:09:09;3.08;;;1.77;;
83099;SDS011;72972;51.784;4.660;2024-03-25T13:11:35;1.90;;;1.33;;
83099;SDS011;72972;51.784;4.660;2024-03-25T13:14:01;2.60;;;1.60;;
83099;SDS011;72972;51.784;4.660;2024-03-25T13:16:28;2.92;;;1.70;;
83099;SDS011;72972;51.784;4.660;2024-03-25T13:18:53;2.25;;;1.60;;
83099;SDS011;72972;51.784;4.660;2024-03-25T13:21:18;2.05;;;1.55;;
83099;SDS011;72972;51.784;4.660;2024-03-25T13:23:44;2.72;;;1.70;;
83099;SDS011;72972;51.784;4.660;2024-03-25T13:26:09;1.65;;;1.40;;
83099;SDS011;72972;51.784;4.660;2024-03-25T13:28:34;2.45;;;1.60;;
83099;SDS011;72972;51.784;4.660;2024-03-25T13:31:00;2.70;;;1.45;;
83099;SDS011;72972;51.784;4.660;2024-03-25T13:33:25;2.40;;;1.58;;
83099;SDS011;72972;51.784;4.660;2024-03-25T13:35:50;1.80;;;1.27;;
83099;SDS011;72972;51.784;4.660;2024-03-25T13:38:16;2.05;;;1.45;;
83099;SDS011;72972;51.784;4.660;2024-03-25T13:40:41;3.03;;;1.70;;
83099;SDS011;72972;51.784;4.660;2024-03-25T13:43:06;2.67;;;1.50;;
83099;SDS011;72972;51.784;4.660;2024-03-25T13:45:34;2.00;;;1.30;;
83099;SDS011;72972;51.784;4.660;2024-03-25T13:48:00;2.20;;;1.50;;
83099;SDS011;72972;51.784;4.660;2024-03-25T13:50:25;2.70;;;1.83;;
83099;SDS011;72972;51.784;4.660;2024-03-25T13:52:50;3.67;;;1.58;;
83099;SDS011;72972;51.784;4.660;2024-03-25T13:55:16;1.88;;;1.42;;
83099;SDS011;72972;51.784;4.660;2024-03-25T13:57:41;2.05;;;1.27;;
83099;SDS011;72972;51.784;4.660;2024-03-25T14:00:14;2.47;;;1.35;;
83099;SDS011;72972;51.784;4.660;2024-03-25T14:02:40;2.28;;;1.63;;
83099;SDS011;72972;51.784;4.660;2024-03-25T14:05:05;2.05;;;1.35;;
83099;SDS011;72972;51.784;4.660;2024-03-25T14:07:31;1.92;;;1.48;;
83099;SDS011;72972;51.784;4.660;2024-03-25T14:09:56;2.88;;;1.50;;
83099;SDS011;72972;51.784;4.660;2024-03-25T14:12:24;1.80;;;1.38;;
83099;SDS011;72972;51.784;4.660;2024-03-25T14:14:50;2.67;;;1.45;;
83099;SDS011;72972;51.784;4.660;2024-03-25T14:17:15;2.08;;;1.63;;
83099;SDS011;72972;51.784;4.660;2024-03-25T14:19:41;1.55;;;1.30;;
83099;SDS011;72972;51.784;4.660;2024-03-25T14:22:07;2.35;;;1.30;;
83099;SDS011;72972;51.784;4.660;2024-03-25T14:24:32;2.42;;;1.73;;
83099;SDS011;72972;51.784;4.660;2024-03-25T14:26:58;1.77;;;1.30;;
83099;SDS011;72972;51.784;4.660;2024-03-25T14:29:23;2.45;;;1.50;;
83099;SDS011;72972;51.784;4.660;2024-03-25T14:31:48;1.95;;;1.38;;
83099;SDS011;72972;51.784;4.660;2024-03-25T14:34:14;2.00;;;1.27;;
83099;SDS011;72972;51.784;4.660;2024-03-25T14:36:39;1.23;;;1.13;;
83099;SDS011;72972;51.784;4.660;2024-03-25T14:39:04;1.20;;;1.10;;
83099;SDS011;72972;51.784;4.660;2024-03-25T14:41:37;1.65;;;0.90;;
83099;SDS011;72972;51.784;4.660;2024-03-25T14:44:04;1.63;;;1.27;;
83099;SDS011;72972;51.784;4.660;2024-03-25T14:46:29;1.40;;;1.00;;
83099;SDS011;72972;51.784;4.660;2024-03-25T14:48:55;1.73;;;1.20;;
83099;SDS011;72972;51.784;4.660;2024-03-25T14:51:20;1.98;;;1.40;;